createdAt,value
2022-10-13T00:01:21.774Z,73.71
2022-10-13T00:03:55.818Z,74.02
2022-10-13T00:06:27.531Z,74.11
2022-10-13T00:09:01.201Z,74.32
2022-10-13T00:11:35.887Z,74.31
2022-10-13T00:14:09.098Z,74.41
2022-10-13T00:16:38.801Z,74.53
2022-10-13T00:19:12.894Z,74.57
2022-10-13T00:21:48.083Z,74.66
2022-10-13T00:24:18.253Z,74.63
2022-10-13T00:26:53.332Z,74.47
2022-10-13T00:29:23.299Z,74.61
2022-10-13T00:31:56.429Z,74.34
2022-10-13T00:34:26.406Z,74.42
2022-10-13T00:36:55.788Z,74.20
2022-10-13T00:39:25.802Z,74.01
2022-10-13T00:42:03.131Z,73.82
2022-10-13T00:45:08.308Z,73.86
2022-10-13T00:47:48.936Z,73.90
2022-10-13T00:50:23.816Z,74.12
2022-10-13T00:53:01.991Z,74.07
2022-10-13T00:55:37.815Z,74.03
2022-10-13T00:58:11.408Z,73.94
2022-10-13T01:00:53.768Z,74.04
2022-10-13T01:03:23.095Z,74.14
2022-10-13T01:05:59.202Z,74.11
2022-10-13T01:08:32.801Z,74.27
2022-10-13T01:11:49.031Z,74.39
2022-10-13T01:14:54.871Z,73.94
2022-10-13T01:17:33.937Z,74.32
2022-10-13T01:20:25.896Z,74.38
2022-10-13T01:23:15.712Z,74.40
2022-10-13T01:26:22.404Z,74.60
2022-10-13T01:29:06.758Z,74.83
2022-10-13T01:31:49.089Z,74.99
2022-10-13T01:34:37.415Z,75.17
2022-10-13T01:37:33.268Z,75.29
2022-10-13T01:40:12.982Z,75.13
2022-10-13T01:43:03.783Z,75.06
2022-10-13T01:45:58.121Z,74.86
2022-10-13T01:48:46.040Z,75.24
2022-10-13T01:51:20.780Z,75.37
2022-10-13T01:53:56.073Z,75.39
2022-10-13T01:56:29.897Z,75.54
2022-10-13T01:59:09.135Z,75.30
2022-10-13T02:01:57.970Z,75.66
2022-10-13T02:04:48.172Z,75.75
2022-10-13T02:07:30.827Z,75.72
2022-10-13T02:10:04.042Z,75.97
2022-10-13T02:12:52.159Z,75.86
2022-10-13T02:15:34.114Z,75.58
2022-10-13T02:18:05.588Z,75.61
2022-10-13T02:20:36.962Z,75.41
2022-10-13T02:23:12.676Z,75.07
2022-10-13T02:25:44.161Z,74.76
2022-10-13T02:28:18.920Z,74.67
2022-10-13T02:30:50.474Z,74.58
2022-10-13T02:33:21.433Z,74.88
2022-10-13T02:35:53.554Z,74.80
2022-10-13T02:38:29.972Z,75.01
2022-10-13T02:41:03.169Z,74.93
2022-10-13T02:43:38.080Z,75.15
2022-10-13T02:46:07.737Z,75.39
2022-10-13T02:48:39.716Z,75.47
2022-10-13T02:51:10.140Z,75.36
2022-10-13T02:53:43.333Z,75.25
2022-10-13T02:56:14.396Z,75.05
2022-10-13T02:58:47.866Z,75.01
2022-10-13T03:01:18.629Z,74.95
2022-10-13T03:04:12.336Z,74.96
2022-10-13T03:06:45.251Z,74.98
2022-10-13T03:09:15.917Z,74.69
2022-10-13T03:11:47.366Z,74.52
2022-10-13T03:14:23.282Z,74.72
2022-10-13T03:17:00.784Z,75.01
2022-10-13T03:19:32.075Z,75.12
2022-10-13T03:22:02.530Z,75.07
2022-10-13T03:24:34.454Z,75.17
2022-10-13T03:27:04.612Z,75.34
2022-10-13T03:29:38.045Z,75.64
2022-10-13T03:32:11.305Z,75.68
2022-10-13T03:34:42.239Z,75.70
2022-10-13T03:37:15.996Z,75.69
2022-10-13T03:39:54.933Z,75.69
2022-10-13T03:42:24.691Z,75.80
2022-10-13T03:44:58.219Z,75.76
2022-10-13T03:47:29.095Z,75.99
2022-10-13T03:50:02.625Z,75.76
2022-10-13T03:52:33.911Z,75.68
2022-10-13T03:55:05.398Z,75.38
2022-10-13T03:57:34.202Z,74.93
2022-10-13T04:00:05.226Z,75.10
2022-10-13T04:02:42.285Z,75.52
2022-10-13T04:05:12.437Z,75.44
2022-10-13T04:07:43.737Z,75.43
2022-10-13T04:10:21.661Z,75.23
2022-10-13T04:12:52.518Z,75.04
2022-10-13T04:15:22.057Z,75.17
2022-10-13T04:17:55.231Z,75.31
2022-10-13T04:20:25.938Z,75.12
2022-10-13T04:22:58.943Z,75.34
2022-10-13T04:25:31.458Z,75.80
2022-10-13T04:28:02.289Z,75.76
2022-10-13T04:30:35.106Z,75.73
2022-10-13T04:33:06.311Z,75.48
2022-10-13T04:35:50.349Z,75.65
2022-10-13T04:38:23.551Z,75.57
2022-10-13T04:40:57.232Z,75.62
2022-10-13T04:43:31.593Z,75.51
2022-10-13T04:46:08.406Z,75.76
2022-10-13T04:48:41.954Z,75.71
2022-10-13T04:51:20.689Z,75.54
2022-10-13T04:53:56.762Z,75.53
2022-10-13T04:56:30.909Z,75.67
2022-10-13T04:59:13.657Z,75.67
2022-10-13T05:01:51.145Z,75.67
2022-10-13T05:04:26.547Z,75.79
2022-10-13T05:07:18.324Z,75.74
2022-10-13T05:09:54.558Z,75.53
2022-10-13T05:12:26.151Z,75.47
2022-10-13T05:14:55.189Z,75.59
2022-10-13T05:17:23.562Z,75.54
2022-10-13T05:19:51.943Z,75.58
2022-10-13T05:22:20.902Z,75.74
2022-10-13T05:24:50.866Z,75.87
2022-10-13T05:27:20.560Z,75.71
2022-10-13T05:29:51.843Z,75.62
2022-10-13T05:32:23.582Z,75.74
2022-10-13T05:34:56.062Z,75.69
2022-10-13T05:37:24.581Z,75.89
2022-10-13T05:39:56.305Z,75.89
2022-10-13T05:42:25.012Z,75.88
2022-10-13T05:44:53.392Z,75.87
2022-10-13T05:47:23.316Z,75.86
2022-10-13T05:49:55.928Z,75.84
2022-10-13T05:52:25.680Z,75.95
2022-10-13T05:55:00.882Z,76.15
2022-10-13T05:57:41.283Z,76.12
2022-10-13T06:00:13.576Z,76.10
2022-10-13T06:02:49.960Z,76.37
2022-10-13T06:05:20.871Z,76.67
2022-10-13T06:07:53.118Z,76.64
2022-10-13T06:10:25.758Z,76.54
2022-10-13T06:12:57.371Z,76.68
2022-10-13T06:15:28.572Z,76.56
2022-10-13T06:17:59.261Z,76.53
2022-10-13T06:20:30.194Z,76.70
2022-10-13T06:22:58.856Z,76.80
2022-10-13T06:25:27.119Z,76.72
2022-10-13T06:28:00.209Z,76.72
2022-10-13T06:30:31.950Z,76.72
2022-10-13T06:33:00.684Z,76.79
2022-10-13T06:35:29.163Z,76.76
2022-10-13T06:37:58.458Z,76.89
2022-10-13T06:40:26.808Z,76.92
2022-10-13T06:42:55.063Z,76.98
2022-10-13T06:45:26.266Z,76.91
2022-10-13T06:47:56.424Z,76.80
2022-10-13T06:50:26.198Z,76.92
2022-10-13T06:52:56.479Z,76.89
2022-10-13T06:55:24.775Z,76.84
2022-10-13T06:57:55.236Z,76.94
2022-10-13T07:00:24.011Z,76.87
2022-10-13T07:02:53.006Z,76.86
2022-10-13T07:05:21.296Z,76.70
2022-10-13T07:07:54.260Z,76.48
2022-10-13T07:10:25.180Z,76.36
2022-10-13T07:12:53.404Z,76.40
2022-10-13T07:15:24.599Z,76.39
2022-10-13T07:17:54.197Z,76.28
2022-10-13T07:20:24.840Z,76.20
2022-10-13T07:22:54.920Z,76.33
2022-10-13T07:25:23.885Z,76.13
2022-10-13T07:27:55.011Z,76.21
2022-10-13T07:30:23.376Z,76.27
2022-10-13T07:32:52.148Z,76.00
2022-10-13T07:35:23.194Z,75.72
2022-10-13T07:37:57.488Z,75.87
2022-10-13T07:40:27.051Z,76.01
2022-10-13T07:42:57.078Z,75.80
2022-10-13T07:45:25.619Z,75.60
2022-10-13T07:47:56.522Z,75.49
2022-10-13T07:50:27.429Z,75.26
2022-10-13T07:52:55.623Z,75.02
2022-10-13T07:55:25.123Z,74.93
2022-10-13T07:57:55.700Z,74.87
2022-10-13T08:00:23.719Z,74.75
2022-10-13T08:02:51.889Z,74.55
2022-10-13T08:05:20.196Z,74.69
2022-10-13T08:07:48.563Z,74.48
2022-10-13T08:10:21.144Z,74.07
2022-10-13T08:12:49.892Z,73.89
2022-10-13T08:15:18.811Z,73.65
2022-10-13T08:17:47.080Z,73.46
2022-10-13T08:20:15.230Z,73.03
2022-10-13T08:22:43.256Z,72.75
2022-10-13T08:25:11.492Z,72.64
2022-10-13T08:27:50.533Z,72.26
2022-10-13T08:30:20.377Z,72.30
2022-10-13T08:32:49.091Z,71.78
2022-10-13T08:35:17.367Z,71.54
2022-10-13T08:37:45.523Z,71.45
2022-10-13T08:40:21.066Z,71.16
2022-10-13T08:42:50.219Z,70.90
2022-10-13T08:45:46.154Z,70.58
2022-10-13T08:48:38.747Z,70.63
2022-10-13T08:51:08.865Z,70.18
2022-10-13T08:53:42.006Z,69.92
2022-10-13T08:56:20.585Z,69.73
2022-10-13T08:58:51.747Z,69.71
2022-10-13T09:01:21.299Z,69.44
2022-10-13T09:04:15.655Z,69.14
2022-10-13T09:06:54.262Z,68.71
2022-10-13T09:09:25.561Z,68.59
2022-10-13T09:11:54.866Z,68.26
2022-10-13T09:14:29.895Z,68.30
2022-10-13T09:17:20.630Z,68.12
2022-10-13T09:20:21.279Z,67.93
2022-10-13T09:23:23.043Z,67.49
2022-10-13T09:25:53.310Z,67.20
2022-10-13T09:28:29.241Z,67.54
2022-10-13T09:31:16.242Z,66.68
2022-10-13T09:33:46.002Z,67.22
2022-10-13T09:36:16.307Z,66.89
2022-10-13T09:39:15.320Z,66.65
2022-10-13T09:41:46.135Z,66.31
2022-10-13T09:44:19.015Z,66.52
2022-10-13T09:46:55.522Z,65.89
2022-10-13T09:49:41.626Z,65.67
2022-10-13T09:52:12.525Z,65.69
2022-10-13T09:54:41.231Z,65.35
2022-10-13T09:57:30.734Z,65.38
2022-10-13T10:00:14.955Z,64.99
2022-10-13T10:03:02.186Z,64.96
2022-10-13T10:05:47.816Z,64.77
2022-10-13T10:08:28.941Z,64.37
2022-10-13T10:11:18.109Z,64.43
2022-10-13T10:13:47.383Z,64.04
2022-10-13T10:16:19.706Z,63.74
2022-10-13T10:19:15.634Z,63.82
2022-10-13T10:22:06.235Z,63.49
2022-10-13T10:24:59.510Z,63.30
2022-10-13T10:27:39.996Z,62.71
2022-10-13T10:30:20.529Z,62.98
2022-10-13T10:33:07.390Z,62.76
2022-10-13T10:35:56.792Z,62.20
2022-10-13T10:38:49.006Z,62.04
2022-10-13T10:41:36.719Z,61.74
2022-10-13T10:44:16.371Z,61.17
2022-10-13T10:46:51.191Z,61.08
2022-10-13T10:49:40.093Z,60.80
2022-10-13T10:52:19.430Z,60.20
2022-10-13T10:55:24.424Z,60.31
2022-10-13T10:58:32.373Z,60.37
2022-10-13T11:01:11.676Z,59.68
2022-10-13T11:04:13.188Z,59.56
2022-10-13T11:06:43.602Z,59.65
2022-10-13T11:09:14.849Z,59.52
2022-10-13T11:11:43.902Z,59.02
2022-10-13T11:14:30.501Z,58.71
2022-10-13T11:17:11.053Z,58.97
2022-10-13T11:19:45.255Z,59.39
2022-10-13T11:22:24.246Z,59.39
2022-10-13T11:25:15.853Z,58.90
2022-10-13T11:27:45.294Z,58.63
2022-10-13T11:30:42.174Z,58.37
2022-10-13T11:33:39.265Z,58.78
2022-10-13T11:36:40.709Z,57.90
2022-10-13T11:39:28.668Z,57.13
2022-10-13T11:42:16.650Z,57.43
2022-10-13T11:45:12.002Z,57.49
2022-10-13T11:48:01.241Z,57.33
2022-10-13T11:50:42.310Z,56.24
2022-10-13T11:53:14.912Z,55.88
2022-10-13T11:55:54.468Z,55.84
2022-10-13T11:58:26.457Z,55.39
2022-10-13T12:01:12.651Z,55.10
2022-10-13T12:03:44.515Z,55.18
2022-10-13T12:06:18.248Z,55.24
2022-10-13T12:08:51.290Z,54.38
2022-10-13T12:11:35.737Z,54.27
2022-10-13T12:14:09.929Z,54.64
2022-10-13T12:16:53.191Z,54.31
2022-10-13T12:19:26.014Z,54.10
2022-10-13T12:22:00.011Z,53.79
2022-10-13T12:24:31.893Z,53.94
2022-10-13T12:27:11.402Z,53.55
2022-10-13T12:29:43.995Z,52.20
2022-10-13T12:32:27.426Z,52.27
2022-10-13T12:34:56.630Z,52.34
2022-10-13T12:37:34.651Z,52.37
2022-10-13T12:40:06.354Z,52.47
2022-10-13T12:42:38.093Z,52.37
2022-10-13T12:45:07.487Z,52.63
2022-10-13T12:47:39.628Z,52.31
2022-10-13T12:50:40.799Z,51.84
2022-10-13T12:53:09.086Z,51.64
2022-10-13T12:55:48.857Z,51.63
2022-10-13T12:58:26.525Z,51.93
2022-10-13T13:01:35.849Z,51.80
2022-10-13T13:04:23.572Z,51.64
2022-10-13T13:07:00.950Z,51.81
2022-10-13T13:09:35.385Z,51.95
2022-10-13T13:12:14.000Z,52.43
2022-10-13T13:14:57.489Z,53.14
2022-10-13T13:17:56.651Z,52.81
2022-10-13T13:20:38.972Z,52.96
2022-10-13T13:23:11.507Z,52.90
2022-10-13T13:25:43.745Z,52.83
2022-10-13T13:28:16.829Z,52.85
2022-10-13T13:30:47.628Z,52.82
2022-10-13T13:33:19.399Z,52.28
2022-10-13T13:35:49.906Z,52.04
2022-10-13T13:38:20.535Z,51.81
2022-10-13T13:40:49.919Z,51.57
2022-10-13T13:43:22.481Z,51.18
2022-10-13T13:45:52.838Z,51.48
2022-10-13T13:48:27.331Z,51.62
2022-10-13T13:50:57.419Z,51.82
2022-10-13T13:53:30.708Z,51.80
2022-10-13T13:56:04.246Z,51.73
2022-10-13T13:58:39.193Z,51.49
2022-10-13T14:01:10.069Z,51.76
2022-10-13T14:03:41.471Z,51.69
2022-10-13T14:06:21.042Z,51.50
2022-10-13T14:08:53.976Z,51.68
2022-10-13T14:11:32.975Z,51.50
2022-10-13T14:14:04.450Z,51.51
2022-10-13T14:16:42.995Z,51.99
2022-10-13T14:19:13.486Z,51.88
2022-10-13T14:21:53.597Z,51.86
2022-10-13T14:24:40.577Z,52.26
2022-10-13T14:27:20.616Z,52.06
2022-10-13T14:29:52.278Z,52.50
2022-10-13T14:32:52.265Z,52.38
2022-10-13T14:35:45.614Z,52.29
2022-10-13T14:38:36.960Z,52.74
2022-10-13T14:41:39.230Z,52.73
2022-10-13T14:44:27.950Z,52.82
2022-10-13T14:47:00.563Z,53.15
2022-10-13T14:49:29.883Z,53.63
2022-10-13T14:52:07.541Z,53.98
2022-10-13T14:54:44.700Z,54.16
2022-10-13T14:57:16.870Z,54.40
2022-10-13T14:59:46.947Z,54.84
2022-10-13T15:02:15.661Z,55.54
2022-10-13T15:04:54.685Z,56.11
2022-10-13T15:07:24.056Z,56.02
2022-10-13T15:10:04.289Z,56.16
2022-10-13T15:12:34.435Z,56.52
2022-10-13T15:15:03.542Z,57.10
2022-10-13T15:17:34.851Z,57.18
2022-10-13T15:20:08.749Z,57.16
2022-10-13T15:22:41.373Z,57.39
2022-10-13T15:25:23.969Z,57.54
2022-10-13T15:28:10.038Z,57.77
2022-10-13T15:30:42.450Z,58.02
2022-10-13T15:33:16.431Z,58.09
2022-10-13T15:35:51.089Z,58.32
2022-10-13T15:38:21.384Z,58.44
2022-10-13T15:40:50.802Z,58.42
2022-10-13T15:43:19.643Z,58.45
2022-10-13T15:45:57.244Z,58.55
2022-10-13T15:48:26.930Z,58.85
2022-10-13T15:50:55.969Z,59.28
2022-10-13T15:53:25.680Z,59.83
2022-10-13T15:55:54.929Z,60.01
2022-10-13T15:58:24.887Z,60.39
2022-10-13T16:00:53.246Z,60.69
2022-10-13T16:03:21.980Z,61.13
2022-10-13T16:05:51.528Z,61.55
2022-10-13T16:08:20.211Z,61.94
2022-10-13T16:10:51.232Z,62.04
2022-10-13T16:13:21.764Z,62.32
2022-10-13T16:16:01.312Z,62.74
2022-10-13T16:18:34.933Z,62.94
2022-10-13T16:21:18.760Z,63.28
2022-10-13T16:23:49.661Z,63.69
2022-10-13T16:26:20.278Z,64.09
2022-10-13T16:28:50.119Z,64.18
2022-10-13T16:31:21.715Z,64.27
2022-10-13T16:33:52.065Z,64.54
2022-10-13T16:36:24.317Z,64.62
2022-10-13T16:38:57.143Z,64.78
2022-10-13T16:41:29.094Z,64.82
2022-10-13T16:43:58.418Z,64.93
2022-10-13T16:46:27.257Z,64.96
2022-10-13T16:48:55.649Z,64.92
2022-10-13T16:51:27.732Z,65.14
2022-10-13T16:54:04.199Z,65.31
2022-10-13T16:56:33.774Z,65.43
2022-10-13T16:59:06.030Z,65.31
2022-10-13T17:01:36.705Z,65.54
2022-10-13T17:04:06.787Z,65.58
2022-10-13T17:06:38.818Z,65.88
2022-10-13T17:09:11.247Z,66.10
2022-10-13T17:11:44.862Z,66.32
2022-10-13T17:14:15.064Z,66.53
2022-10-13T17:16:45.914Z,66.71
2022-10-13T17:19:17.985Z,66.76
2022-10-13T17:21:48.078Z,66.79
2022-10-13T17:24:20.557Z,66.94
2022-10-13T17:26:53.176Z,66.78
2022-10-13T17:29:29.344Z,66.98
2022-10-13T17:32:02.963Z,66.96
2022-10-13T17:34:33.013Z,67.30
2022-10-13T17:37:04.801Z,67.43
2022-10-13T17:39:36.175Z,67.47
2022-10-13T17:42:06.604Z,67.94
2022-10-13T17:44:39.244Z,67.97
2022-10-13T17:47:11.143Z,67.97
2022-10-13T17:49:40.894Z,68.17
2022-10-13T17:52:10.574Z,68.38
2022-10-13T17:54:41.850Z,68.37
2022-10-13T17:57:12.019Z,68.51
2022-10-13T17:59:41.497Z,68.35
2022-10-13T18:02:11.179Z,68.61
2022-10-13T18:04:43.697Z,68.86
2022-10-13T18:07:14.591Z,68.88
2022-10-13T18:09:47.386Z,69.08
2022-10-13T18:12:16.932Z,69.18
2022-10-13T18:14:47.326Z,69.20
2022-10-13T18:17:19.613Z,69.38
2022-10-13T18:19:51.122Z,69.63
2022-10-13T18:22:21.275Z,69.79
2022-10-13T18:24:56.028Z,69.83
2022-10-13T18:27:31.309Z,69.89
2022-10-13T18:30:00.686Z,69.66
2022-10-13T18:32:32.544Z,69.62
2022-10-13T18:35:03.279Z,69.54
2022-10-13T18:37:35.703Z,69.81
2022-10-13T18:40:05.582Z,69.96
2022-10-13T18:42:34.286Z,70.20
2022-10-13T18:45:03.925Z,70.38
2022-10-13T18:47:33.523Z,70.43
2022-10-13T18:50:03.420Z,70.41
2022-10-13T18:52:32.266Z,70.52
2022-10-13T18:55:01.009Z,70.69
2022-10-13T18:57:29.871Z,70.67
2022-10-13T19:00:01.062Z,70.83
2022-10-13T19:02:32.358Z,71.23
2022-10-13T19:05:01.313Z,71.45
2022-10-13T19:07:30.511Z,71.55
2022-10-13T19:10:00.150Z,71.84
2022-10-13T19:12:29.152Z,72.23
2022-10-13T19:14:58.469Z,72.63
2022-10-13T19:17:27.401Z,73.08
2022-10-13T19:19:56.684Z,73.29
2022-10-13T19:22:26.439Z,73.55
2022-10-13T19:24:56.042Z,74.01
2022-10-13T19:27:25.277Z,74.34
2022-10-13T19:29:54.092Z,74.50
2022-10-13T19:32:23.235Z,74.73
2022-10-13T19:34:51.524Z,74.83
2022-10-13T19:37:20.182Z,74.94
2022-10-13T19:39:50.630Z,74.96
2022-10-13T19:42:19.688Z,75.24
2022-10-13T19:44:48.265Z,75.38
2022-10-13T19:47:16.664Z,75.44
2022-10-13T19:49:53.947Z,75.46
2022-10-13T19:52:33.396Z,75.49
2022-10-13T19:55:10.973Z,75.35
2022-10-13T19:57:47.635Z,75.38
2022-10-13T20:00:24.643Z,75.41
2022-10-13T20:03:01.630Z,75.38
2022-10-13T20:05:39.571Z,75.31
2022-10-13T20:08:16.646Z,75.21
2022-10-13T20:10:52.046Z,75.06
2022-10-13T20:13:29.993Z,75.03
2022-10-13T20:16:15.047Z,75.03
2022-10-13T20:19:03.498Z,74.83
2022-10-13T20:21:43.171Z,74.80
2022-10-13T20:24:24.576Z,74.78
2022-10-13T20:27:03.228Z,74.54
2022-10-13T20:29:41.235Z,74.42
2022-10-13T20:32:20.933Z,74.41
2022-10-13T20:34:58.110Z,74.39
2022-10-13T20:37:37.311Z,74.39
2022-10-13T20:40:10.745Z,74.34
2022-10-13T20:42:44.264Z,74.59
2022-10-13T20:45:22.014Z,74.49
2022-10-13T20:47:51.620Z,74.68
2022-10-13T20:50:19.894Z,74.68
2022-10-13T20:52:48.429Z,74.61
2022-10-13T20:55:16.742Z,74.79
2022-10-13T20:57:45.773Z,74.71
2022-10-13T21:00:14.524Z,74.80
2022-10-13T21:02:42.937Z,74.81
2022-10-13T21:05:11.361Z,74.93
2022-10-13T21:07:42.543Z,75.10
2022-10-13T21:10:11.801Z,75.18
2022-10-13T21:12:41.398Z,75.25
2022-10-13T21:15:10.778Z,75.32
2022-10-13T21:17:42.344Z,75.50
2022-10-13T21:20:11.750Z,75.62
2022-10-13T21:22:40.509Z,75.64
2022-10-13T22:33:32.102Z,76.64
2022-10-13T22:36:00.193Z,76.75
2022-10-13T22:38:28.284Z,76.71
2022-10-13T22:41:01.703Z,76.57
2022-10-13T22:43:29.739Z,76.38
2022-10-13T22:45:59.003Z,76.37
2022-10-13T22:48:27.173Z,76.13
2022-10-13T22:50:55.262Z,75.93
2022-10-13T22:53:23.736Z,75.85
2022-10-13T22:55:51.798Z,75.76
2022-10-13T22:58:19.779Z,75.85
2022-10-13T23:00:49.010Z,75.75
2022-10-13T23:03:36.810Z,75.85
2022-10-13T23:06:06.823Z,75.95
2022-10-13T23:08:35.153Z,75.88
2022-10-13T23:11:03.318Z,75.93
2022-10-13T23:13:31.486Z,76.04
2022-10-13T23:16:09.369Z,76.13
2022-10-13T23:18:40.949Z,76.21
2022-10-13T23:21:16.412Z,76.43
2022-10-13T23:23:48.035Z,76.70
2022-10-13T23:26:17.801Z,76.82
2022-10-13T23:28:46.660Z,76.95
2022-10-13T23:31:17.443Z,76.91
2022-10-13T23:33:46.071Z,76.87
2022-10-13T23:36:17.994Z,76.68
2022-10-13T23:38:54.853Z,76.39
2022-10-13T23:41:24.607Z,75.91
2022-10-13T23:43:53.824Z,76.39
2022-10-13T23:46:22.173Z,76.87
2022-10-13T23:48:50.809Z,76.97
2022-10-13T23:51:23.332Z,77.12
2022-10-13T23:53:53.273Z,77.36
2022-10-13T23:56:22.096Z,77.37
2022-10-13T23:58:50.757Z,77.11
